createdAt,value
2022-09-23T00:01:07.826Z,12.28
2022-09-23T00:03:37.134Z,12.34
2022-09-23T00:06:15.207Z,12.35
2022-09-23T00:08:41.634Z,12.33
2022-09-23T00:11:13.226Z,12.40
2022-09-23T00:13:41.651Z,12.38
2022-09-23T00:16:11.184Z,12.36
2022-09-23T00:18:37.762Z,12.28
2022-09-23T00:21:05.678Z,12.23
2022-09-23T00:23:32.552Z,12.31
2022-09-23T00:26:00.852Z,12.24
2022-09-23T00:28:27.490Z,12.11
2022-09-23T00:30:54.061Z,12.17
2022-09-23T00:33:20.470Z,12.03
2022-09-23T00:35:47.703Z,12.16
2022-09-23T00:38:14.415Z,12.04
2022-09-23T00:40:46.986Z,12.12
2022-09-23T00:43:14.884Z,12.02
2022-09-23T00:45:47.348Z,12.09
2022-09-23T00:48:19.730Z,12.04
2022-09-23T00:50:50.021Z,12.17
2022-09-23T00:53:19.715Z,12.11
2022-09-23T00:55:48.870Z,12.16
2022-09-23T00:58:17.757Z,12.03
2022-09-23T01:00:46.559Z,12.01
2022-09-23T01:03:13.403Z,11.95
2022-09-23T01:05:40.102Z,11.98
2022-09-23T01:08:07.403Z,11.98
2022-09-23T01:10:48.689Z,11.94
2022-09-23T01:13:28.251Z,12.02
2022-09-23T01:16:11.027Z,12.10
2022-09-23T01:18:49.976Z,12.04
2022-09-23T01:21:38.270Z,11.98
2022-09-23T01:24:31.557Z,11.92
2022-09-23T01:27:02.621Z,11.92
2022-09-23T01:29:48.798Z,11.86
2022-09-23T01:32:20.369Z,11.89
2022-09-23T01:34:55.372Z,11.86
2022-09-23T01:37:25.863Z,11.76
2022-09-23T01:40:05.529Z,11.74
2022-09-23T01:42:39.585Z,11.70
2022-09-23T01:45:16.824Z,11.80
2022-09-23T01:47:50.729Z,11.80
2022-09-23T01:50:38.928Z,11.75
2022-09-23T01:53:10.249Z,11.78
2022-09-23T01:55:40.414Z,11.73
2022-09-23T01:58:14.419Z,11.79
2022-09-23T02:00:46.076Z,11.66
2022-09-23T02:03:17.076Z,11.69
2022-09-23T02:05:49.912Z,11.73
2022-09-23T02:08:16.212Z,11.71
2022-09-23T02:10:47.062Z,11.67
2022-09-23T02:13:18.219Z,11.67
2022-09-23T02:15:50.997Z,11.71
2022-09-23T02:18:22.560Z,11.74
2022-09-23T02:20:50.675Z,11.74
2022-09-23T02:23:19.659Z,11.82
2022-09-23T02:25:50.052Z,11.88
2022-09-23T02:28:31.650Z,11.69
2022-09-23T02:31:11.918Z,11.78
2022-09-23T02:33:46.670Z,11.70
2022-09-23T02:36:22.180Z,11.79
2022-09-23T02:38:57.515Z,11.82
2022-09-23T02:41:32.492Z,11.87
2022-09-23T02:44:10.534Z,11.83
2022-09-23T02:46:37.873Z,11.83
2022-09-23T02:49:29.893Z,11.92
2022-09-23T02:51:57.515Z,11.85
2022-09-23T02:54:28.654Z,11.81
2022-09-23T02:56:55.180Z,11.86
2022-09-23T02:59:22.902Z,11.89
2022-09-23T03:01:58.412Z,11.94
2022-09-23T03:04:40.025Z,11.91
2022-09-23T03:07:33.100Z,12.02
2022-09-23T03:10:26.789Z,11.97
2022-09-23T03:13:10.007Z,11.98
2022-09-23T03:16:07.179Z,11.94
2022-09-23T03:18:40.387Z,11.96
2022-09-23T03:21:15.585Z,11.92
2022-09-23T03:23:42.447Z,11.92
2022-09-23T03:26:13.187Z,12.08
2022-09-23T03:28:41.934Z,12.05
2022-09-23T03:31:08.380Z,11.99
2022-09-23T03:33:35.781Z,11.99
2022-09-23T03:36:27.844Z,12.07
2022-09-23T03:38:59.243Z,11.97
2022-09-23T03:41:32.931Z,11.99
2022-09-23T03:44:00.133Z,11.97
2022-09-23T03:46:28.575Z,11.90
2022-09-23T03:48:59.906Z,11.84
2022-09-23T03:51:26.356Z,11.79
2022-09-23T03:53:52.763Z,11.70
2022-09-23T03:56:19.166Z,11.65
2022-09-23T03:58:46.533Z,11.70
2022-09-23T04:01:14.783Z,11.65
2022-09-23T04:03:41.635Z,11.77
2022-09-23T04:06:08.345Z,11.82
2022-09-23T04:08:34.753Z,11.75
2022-09-23T04:11:02.399Z,11.88
2022-09-23T04:13:29.396Z,11.76
2022-09-23T04:15:55.834Z,11.75
2022-09-23T04:18:22.283Z,11.73
2022-09-23T04:20:49.163Z,11.74
2022-09-23T04:23:15.579Z,11.72
2022-09-23T04:25:47.029Z,11.66
2022-09-23T04:28:13.893Z,11.68
2022-09-23T04:30:46.001Z,11.65
2022-09-23T04:33:13.485Z,11.66
2022-09-23T04:35:40.646Z,11.68
2022-09-23T04:38:07.305Z,11.65
2022-09-23T04:40:34.270Z,11.66
2022-09-23T04:43:00.762Z,11.53
2022-09-23T04:45:27.272Z,11.64
2022-09-23T04:47:53.663Z,11.54
2022-09-23T04:50:20.330Z,11.55
2022-09-23T04:52:46.780Z,11.56
2022-09-23T04:55:13.221Z,11.60
2022-09-23T04:57:39.606Z,11.53
2022-09-23T05:00:06.600Z,11.52
2022-09-23T05:02:35.595Z,11.52
2022-09-23T05:05:02.135Z,11.40
2022-09-23T05:07:28.534Z,11.40
2022-09-23T05:09:55.077Z,11.38
2022-09-23T05:12:21.482Z,11.40
2022-09-23T05:14:47.859Z,11.38
2022-09-23T05:17:14.738Z,11.29
2022-09-23T05:19:41.188Z,11.15
2022-09-23T05:22:07.605Z,11.16
2022-09-23T05:24:33.977Z,11.20
2022-09-23T05:27:00.878Z,11.20
2022-09-23T05:29:27.895Z,11.12
2022-09-23T05:31:54.417Z,11.15
2022-09-23T05:34:20.860Z,11.14
2022-09-23T05:36:47.320Z,11.17
2022-09-23T05:39:13.716Z,11.19
2022-09-23T05:41:43.437Z,11.27
2022-09-23T05:44:09.992Z,11.36
2022-09-23T05:46:36.459Z,11.30
2022-09-23T05:49:05.448Z,11.50
2022-09-23T05:51:33.441Z,11.46
2022-09-23T05:54:02.831Z,11.62
2022-09-23T05:56:30.148Z,11.56
2022-09-23T05:58:58.068Z,11.44
2022-09-23T06:01:27.682Z,11.47
2022-09-23T06:03:55.741Z,11.53
2022-09-23T06:06:27.807Z,11.64
2022-09-23T06:08:54.378Z,11.74
2022-09-23T06:11:21.559Z,11.80
2022-09-23T06:13:48.543Z,11.85
2022-09-23T06:16:15.666Z,11.98
2022-09-23T06:18:43.813Z,12.08
2022-09-23T06:21:12.327Z,12.19
2022-09-23T06:23:41.366Z,12.34
2022-09-23T06:26:09.774Z,12.34
2022-09-23T06:28:37.590Z,12.46
2022-09-23T06:31:10.839Z,12.64
2022-09-23T06:33:39.433Z,12.82
2022-09-23T06:36:06.981Z,12.91
2022-09-23T06:38:36.535Z,13.04
2022-09-23T06:41:03.465Z,13.30
2022-09-23T06:43:30.335Z,13.50
2022-09-23T06:45:58.897Z,13.68
2022-09-23T06:48:26.218Z,13.87
2022-09-23T06:50:53.727Z,14.09
2022-09-23T06:53:23.591Z,14.46
2022-09-23T06:56:02.415Z,14.60
2022-09-23T06:58:29.380Z,14.70
2022-09-23T07:01:01.407Z,14.75
2022-09-23T07:03:28.493Z,14.94
2022-09-23T07:05:56.150Z,14.83
2022-09-23T07:08:23.696Z,14.84
2022-09-23T07:10:54.198Z,14.95
2022-09-23T07:13:21.075Z,14.98
2022-09-23T07:15:56.192Z,15.11
2022-09-23T07:18:25.767Z,15.21
2022-09-23T07:20:53.041Z,15.16
2022-09-23T07:23:19.843Z,15.22
2022-09-23T07:25:51.093Z,15.26
2022-09-23T07:28:18.897Z,15.32
2022-09-23T07:30:58.608Z,15.48
2022-09-23T07:33:32.492Z,15.65
2022-09-23T07:36:00.030Z,15.81
2022-09-23T07:38:30.078Z,15.95
2022-09-23T07:41:04.986Z,16.20
2022-09-23T07:43:34.225Z,16.35
2022-09-23T07:46:08.284Z,16.51
2022-09-23T07:48:35.940Z,16.57
2022-09-23T07:51:35.989Z,16.64
2022-09-23T07:54:05.307Z,16.83
2022-09-23T07:56:31.713Z,17.10
2022-09-23T07:59:03.607Z,17.38
2022-09-23T08:01:33.106Z,17.63
2022-09-23T08:04:02.141Z,17.75
2022-09-23T08:06:28.683Z,17.86
2022-09-23T08:08:57.699Z,17.88
2022-09-23T08:11:24.971Z,18.00
2022-09-23T08:13:51.507Z,18.17
2022-09-23T08:16:18.320Z,18.33
2022-09-23T08:18:45.314Z,18.43
2022-09-23T08:21:11.958Z,18.53
2022-09-23T08:23:38.382Z,18.77
2022-09-23T08:26:10.092Z,19.04
2022-09-23T08:28:38.314Z,18.89
2022-09-23T08:31:04.879Z,19.12
2022-09-23T08:33:31.375Z,19.09
2022-09-23T08:36:02.097Z,19.15
2022-09-23T08:38:29.080Z,19.36
2022-09-23T08:41:12.367Z,19.46
2022-09-23T08:43:39.583Z,19.72
2022-09-23T08:46:10.931Z,19.99
2022-09-23T08:48:47.161Z,20.07
2022-09-23T08:51:22.881Z,20.37
2022-09-23T08:53:49.467Z,20.55
2022-09-23T08:56:23.400Z,20.82
2022-09-23T08:59:00.153Z,21.00
2022-09-23T09:01:41.678Z,20.85
2022-09-23T09:04:17.676Z,21.14
2022-09-23T09:06:53.920Z,21.55
2022-09-23T09:09:25.990Z,21.66
2022-09-23T09:11:58.076Z,21.83
2022-09-23T09:14:38.049Z,22.26
2022-09-23T09:17:10.460Z,22.40
2022-09-23T09:19:52.651Z,22.51
2022-09-23T09:23:01.078Z,22.64
2022-09-23T09:25:36.722Z,22.60
2022-09-23T09:28:11.513Z,22.52
2022-09-23T09:30:38.687Z,22.76
2022-09-23T09:33:17.340Z,22.99
2022-09-23T09:36:05.742Z,22.94
2022-09-23T09:38:32.150Z,22.98
2022-09-23T09:41:05.677Z,23.32
2022-09-23T09:43:32.632Z,23.20
2022-09-23T09:46:08.414Z,23.34
2022-09-23T09:48:38.699Z,23.29
2022-09-23T09:51:22.812Z,23.26
2022-09-23T09:53:52.571Z,23.46
2022-09-23T09:56:22.964Z,23.41
2022-09-23T09:59:14.457Z,23.66
2022-09-23T10:01:40.921Z,23.70
2022-09-23T10:04:28.874Z,23.38
2022-09-23T10:07:12.347Z,23.38
2022-09-23T10:09:42.893Z,23.60
2022-09-23T10:12:14.854Z,23.43
2022-09-23T10:14:51.959Z,23.45
2022-09-23T10:17:24.420Z,23.24
2022-09-23T10:19:58.084Z,23.26
2022-09-23T10:22:29.964Z,23.26
2022-09-23T10:24:59.489Z,23.29
2022-09-23T10:27:28.991Z,23.62
2022-09-23T10:29:56.823Z,23.61
2022-09-23T10:32:26.549Z,23.73
2022-09-23T10:35:08.952Z,23.72
2022-09-23T10:37:46.130Z,23.69
2022-09-23T10:40:48.668Z,23.80
2022-09-23T10:43:55.573Z,23.63
2022-09-23T10:46:45.870Z,23.74
2022-09-23T10:49:51.843Z,23.74
2022-09-23T10:52:27.606Z,23.70
2022-09-23T10:55:17.930Z,23.73
2022-09-23T10:57:53.724Z,23.71
2022-09-23T11:00:32.507Z,23.80
2022-09-23T11:03:26.130Z,23.73
2022-09-23T11:06:08.412Z,23.78
2022-09-23T11:09:13.713Z,23.93
2022-09-23T11:12:07.381Z,23.86
2022-09-23T11:14:46.808Z,23.96
2022-09-23T11:17:31.634Z,23.90
2022-09-23T11:20:23.113Z,23.84
2022-09-23T11:23:27.139Z,24.07
2022-09-23T11:26:17.104Z,24.26
2022-09-23T11:29:02.372Z,24.62
2022-09-23T11:31:33.030Z,24.36
2022-09-23T11:34:22.990Z,24.20
2022-09-23T11:36:57.926Z,24.21
2022-09-23T11:39:29.303Z,24.09
2022-09-23T11:41:59.388Z,24.25
2022-09-23T11:44:47.056Z,24.24
2022-09-23T11:47:24.601Z,24.24
2022-09-23T11:49:52.847Z,24.27
2022-09-23T11:52:24.685Z,24.18
2022-09-23T11:57:45.309Z,24.26
2022-09-23T12:00:36.465Z,24.38
2022-09-23T12:03:18.256Z,24.17
2022-09-23T12:05:47.290Z,24.23
2022-09-23T12:08:23.414Z,24.19
2022-09-23T12:10:53.083Z,24.32
2022-09-23T12:13:27.294Z,24.34
2022-09-23T12:15:53.706Z,24.48
2022-09-23T12:18:42.883Z,24.36
2022-09-23T12:21:49.050Z,24.39
2022-09-23T12:24:35.721Z,24.21
2022-09-23T12:27:06.236Z,24.15
2022-09-23T12:29:36.517Z,24.04
2022-09-23T12:32:07.494Z,24.05
2022-09-23T12:34:41.114Z,23.95
2022-09-23T12:37:07.567Z,23.78
2022-09-23T12:39:37.201Z,23.69
2022-09-23T12:42:05.818Z,23.81
2022-09-23T12:44:39.098Z,23.72
2022-09-23T12:47:29.276Z,23.73
2022-09-23T12:49:58.985Z,23.68
2022-09-23T12:52:27.297Z,23.73
2022-09-23T12:55:30.149Z,23.70
2022-09-23T12:57:56.535Z,23.57
2022-09-23T13:00:24.194Z,23.61
2022-09-23T13:03:10.435Z,23.72
2022-09-23T13:06:12.117Z,23.62
2022-09-23T13:08:40.863Z,23.73
2022-09-23T13:11:17.284Z,23.69
2022-09-23T13:13:45.991Z,23.72
2022-09-23T13:16:34.230Z,23.78
2022-09-23T13:19:02.492Z,23.77
2022-09-23T13:21:44.431Z,24.00
2022-09-23T13:24:13.441Z,23.98
2022-09-23T13:26:43.780Z,24.10
2022-09-23T13:29:14.602Z,24.33
2022-09-23T13:31:42.857Z,24.45
2022-09-23T13:34:13.171Z,24.44
2022-09-23T13:36:44.500Z,24.16
2022-09-23T13:39:22.947Z,23.74
2022-09-23T13:41:51.973Z,23.80
2022-09-23T13:44:20.127Z,23.72
2022-09-23T13:46:50.169Z,23.36
2022-09-23T13:49:21.870Z,23.36
2022-09-23T13:51:48.412Z,23.31
2022-09-23T13:54:28.843Z,23.29
2022-09-23T13:56:58.151Z,23.18
2022-09-23T13:59:28.120Z,23.10
2022-09-23T14:02:10.798Z,23.11
2022-09-23T14:04:37.336Z,23.24
2022-09-23T14:07:04.400Z,23.18
2022-09-23T14:09:31.589Z,23.16
2022-09-23T14:11:59.884Z,22.98
2022-09-23T14:14:28.055Z,22.69
2022-09-23T14:16:55.109Z,22.75
2022-09-23T14:19:23.412Z,22.70
2022-09-23T14:21:51.481Z,22.70
2022-09-23T14:24:20.837Z,22.68
2022-09-23T14:27:00.850Z,22.85
2022-09-23T14:29:30.810Z,22.77
2022-09-23T14:32:00.630Z,22.60
2022-09-23T14:34:40.253Z,22.52
2022-09-23T14:37:45.379Z,22.45
2022-09-23T14:40:18.013Z,22.51
2022-09-23T14:42:47.515Z,22.40
2022-09-23T14:45:16.790Z,22.19
2022-09-23T14:47:46.531Z,22.23
2022-09-23T14:50:39.997Z,22.10
2022-09-23T14:53:36.822Z,22.07
2022-09-23T14:56:06.389Z,21.99
2022-09-23T14:58:53.998Z,21.88
2022-09-23T15:01:39.404Z,21.99
2022-09-23T15:04:13.894Z,21.85
2022-09-23T15:06:43.024Z,21.84
2022-09-23T15:09:17.566Z,21.84
2022-09-23T15:11:44.134Z,21.79
2022-09-23T15:14:35.986Z,21.71
2022-09-23T15:16:57.157Z,21.68
2022-09-23T15:19:23.578Z,21.64
2022-09-23T15:21:52.625Z,21.50
2022-09-23T15:24:39.488Z,21.49
2022-09-23T15:27:25.402Z,21.37
2022-09-23T15:29:52.978Z,21.39
2022-09-23T15:32:20.132Z,21.36
2022-09-23T15:34:48.775Z,21.33
2022-09-23T15:37:15.224Z,21.32
2022-09-23T15:39:41.742Z,21.23
2022-09-23T15:42:10.588Z,21.13
2022-09-23T15:44:37.936Z,21.03
2022-09-23T15:47:04.458Z,20.90
2022-09-23T15:49:36.223Z,20.89
2022-09-23T15:52:04.223Z,20.85
2022-09-23T15:54:32.364Z,20.84
2022-09-23T15:56:58.816Z,20.76
2022-09-23T15:59:25.175Z,20.67
2022-09-23T16:01:52.359Z,20.67
2022-09-23T16:04:18.817Z,20.59
2022-09-23T16:06:48.010Z,20.58
2022-09-23T16:09:17.484Z,20.49
2022-09-23T16:11:46.096Z,20.43
2022-09-23T16:14:19.270Z,20.41
2022-09-23T16:16:48.096Z,20.30
2022-09-23T16:19:16.180Z,20.22
2022-09-23T16:21:43.208Z,20.15
2022-09-23T16:24:17.958Z,20.09
2022-09-23T16:26:46.735Z,20.07
2022-09-23T16:29:13.608Z,20.09
2022-09-23T16:31:40.107Z,20.06
2022-09-23T16:34:06.911Z,20.02
2022-09-23T16:36:40.562Z,19.91
2022-09-23T16:39:09.911Z,19.87
2022-09-23T16:41:36.662Z,19.80
2022-09-23T16:44:06.199Z,19.69
2022-09-23T16:46:33.643Z,19.64
2022-09-23T16:49:00.353Z,19.61
2022-09-23T16:51:37.960Z,19.56
2022-09-23T16:54:10.479Z,19.52
2022-09-23T16:56:38.728Z,19.46
2022-09-23T16:59:05.430Z,19.41
2022-09-23T17:01:50.415Z,19.26
2022-09-23T17:04:18.205Z,19.16
2022-09-23T17:06:46.317Z,19.12
2022-09-23T17:09:12.720Z,18.98
2022-09-23T17:11:39.158Z,18.91
2022-09-23T17:14:05.818Z,18.80
2022-09-23T17:16:33.711Z,18.96
2022-09-23T17:19:06.526Z,18.97
2022-09-23T17:21:33.130Z,18.85
2022-09-23T17:23:59.556Z,18.90
2022-09-23T17:26:26.650Z,18.85
2022-09-23T17:28:54.522Z,18.77
2022-09-23T17:31:24.646Z,18.72
2022-09-23T17:33:52.180Z,18.77
2022-09-23T17:36:18.856Z,18.72
2022-09-23T17:38:46.609Z,18.67
2022-09-23T17:41:14.486Z,18.66
2022-09-23T17:43:41.155Z,18.64
2022-09-23T17:46:10.108Z,18.61
2022-09-23T17:48:38.920Z,18.54
2022-09-23T17:51:12.089Z,18.55
2022-09-23T17:53:39.988Z,18.59
2022-09-23T17:56:11.481Z,18.65
2022-09-23T17:58:38.432Z,18.59
2022-09-23T18:01:08.482Z,18.54
2022-09-23T18:03:34.896Z,18.49
2022-09-23T18:06:14.618Z,18.49
2022-09-23T18:08:42.629Z,18.49
2022-09-23T18:11:25.684Z,18.52
2022-09-23T18:13:53.509Z,18.44
2022-09-23T18:16:21.852Z,18.39
2022-09-23T18:18:56.567Z,18.34
2022-09-23T18:21:27.110Z,18.29
2022-09-23T18:23:53.548Z,18.33
2022-09-23T18:26:22.466Z,18.23
2022-09-23T18:28:49.745Z,18.30
2022-09-23T18:31:16.697Z,18.20
2022-09-23T18:33:43.202Z,18.25
2022-09-23T18:36:09.959Z,18.23
2022-09-23T18:38:36.555Z,18.25
2022-09-23T18:41:02.992Z,18.21
2022-09-23T18:43:41.332Z,18.14
2022-09-23T18:46:14.648Z,18.12
2022-09-23T18:49:00.148Z,18.11
2022-09-23T18:51:29.063Z,18.02
2022-09-23T18:53:59.481Z,18.10
2022-09-23T18:56:33.605Z,18.02
2022-09-23T18:59:00.474Z,18.14
2022-09-23T19:01:27.269Z,18.05
2022-09-23T19:03:57.677Z,18.04
2022-09-23T19:06:24.639Z,18.09
2022-09-23T19:08:52.642Z,17.98
2022-09-23T19:11:19.939Z,17.99
2022-09-23T19:13:46.511Z,17.93
2022-09-23T19:16:17.717Z,17.91
2022-09-23T19:18:46.394Z,17.90
2022-09-23T19:21:14.308Z,17.86
2022-09-23T19:23:49.073Z,17.82
2022-09-23T19:26:18.466Z,17.82
2022-09-23T19:28:53.910Z,17.79
2022-09-23T19:31:26.273Z,17.77
2022-09-23T19:33:57.758Z,17.70
2022-09-23T19:36:26.228Z,17.72
2022-09-23T19:38:54.267Z,17.70
2022-09-23T19:41:20.727Z,17.85
2022-09-23T19:43:48.830Z,17.83
2022-09-23T19:46:15.831Z,17.80
2022-09-23T19:48:42.886Z,17.75
2022-09-23T19:51:09.375Z,17.81
2022-09-23T19:53:35.747Z,17.80
2022-09-23T19:56:04.874Z,17.75
2022-09-23T19:58:33.061Z,17.85
2022-09-23T20:00:59.486Z,17.72
2022-09-23T20:03:26.865Z,17.72
2022-09-23T20:05:56.890Z,17.69
2022-09-23T20:08:24.159Z,17.71
2022-09-23T20:10:50.745Z,17.63
2022-09-23T20:13:19.750Z,17.69
2022-09-23T20:15:48.262Z,17.73
2022-09-23T20:18:15.525Z,17.68
2022-09-23T20:20:42.054Z,17.68
2022-09-23T20:23:08.457Z,17.68
2022-09-23T20:25:54.807Z,17.73
2022-09-23T20:28:22.494Z,17.80
2022-09-23T20:30:51.988Z,17.75
2022-09-23T20:33:18.422Z,17.73
2022-09-23T20:35:51.324Z,17.73
2022-09-23T20:38:17.721Z,17.84
2022-09-23T20:40:44.313Z,17.80
2022-09-23T20:43:10.751Z,17.87
2022-09-23T20:45:37.171Z,17.86
2022-09-23T20:48:03.550Z,17.81
2022-09-23T20:50:30.197Z,17.88
2022-09-23T20:52:57.616Z,17.88
2022-09-23T20:55:24.000Z,17.81
2022-09-23T20:57:50.422Z,17.69
2022-09-23T21:00:18.188Z,17.60
2022-09-23T21:02:44.864Z,17.56
2022-09-23T21:05:11.266Z,17.68
2022-09-23T21:07:38.498Z,17.78
2022-09-23T21:10:06.895Z,17.82
2022-09-23T21:12:33.319Z,17.90
2022-09-23T21:14:59.701Z,17.92
2022-09-23T21:17:26.912Z,17.92
2022-09-23T21:19:53.309Z,17.88
2022-09-23T21:22:19.690Z,17.90
2022-09-23T21:25:25.622Z,17.92
2022-09-23T21:27:34.761Z,17.80
2022-09-23T21:30:01.159Z,17.82
2022-09-23T21:32:27.574Z,17.79
2022-09-23T21:34:54.025Z,17.86
2022-09-23T21:37:21.602Z,17.80
2022-09-23T21:40:08.102Z,17.86
2022-09-23T21:42:35.208Z,17.77
2022-09-23T21:45:02.616Z,17.74
2022-09-23T21:47:31.180Z,17.65
2022-09-23T21:49:57.591Z,17.58
2022-09-23T21:52:23.988Z,17.39
2022-09-23T21:54:50.413Z,17.49
2022-09-23T21:57:16.796Z,17.62
2022-09-23T21:59:43.167Z,17.65
2022-09-23T22:02:09.575Z,17.73
2022-09-23T22:04:36.130Z,17.69
2022-09-23T22:07:02.580Z,17.64
2022-09-23T22:09:28.992Z,17.65
2022-09-23T22:12:12.964Z,17.59
2022-09-23T22:14:39.884Z,17.61
2022-09-23T22:17:07.966Z,17.61
2022-09-23T22:19:40.326Z,17.53
2022-09-23T22:22:13.099Z,17.53
2022-09-23T22:24:42.806Z,17.58
2022-09-23T22:27:10.184Z,17.50
2022-09-23T22:29:55.243Z,17.50
2022-09-23T22:32:40.506Z,17.39
2022-09-23T22:35:08.592Z,17.36
2022-09-23T22:37:35.799Z,17.39
2022-09-23T22:40:08.310Z,17.47
2022-09-23T22:42:36.245Z,17.49
2022-09-23T22:45:05.667Z,17.56
2022-09-23T22:47:37.616Z,17.54
2022-09-23T22:50:06.139Z,17.51
2022-09-23T22:52:33.135Z,17.52
2022-09-23T22:55:00.043Z,17.45
2022-09-23T22:57:26.494Z,17.41
2022-09-23T22:59:53.045Z,17.34
2022-09-23T23:02:21.420Z,17.24
2022-09-23T23:04:48.237Z,17.24
2022-09-23T23:07:16.394Z,17.15
2022-09-23T23:09:42.804Z,17.21
2022-09-23T23:12:09.234Z,17.18
2022-09-23T23:14:36.024Z,17.26
2022-09-23T23:17:05.328Z,17.22
2022-09-23T23:19:31.696Z,17.19
2022-09-23T23:21:58.076Z,17.20
2022-09-23T23:24:24.523Z,17.28
2022-09-23T23:26:51.781Z,17.27
2022-09-23T23:29:20.089Z,17.24
2022-09-23T23:31:47.150Z,17.16
2022-09-23T23:34:16.393Z,17.16
2022-09-23T23:36:44.181Z,17.19
2022-09-23T23:39:10.996Z,17.17
2022-09-23T23:41:39.478Z,17.14
2022-09-23T23:44:06.279Z,17.17
2022-09-23T23:46:33.608Z,17.10
2022-09-23T23:49:00.505Z,17.16
2022-09-23T23:51:27.310Z,17.10
2022-09-23T23:53:54.555Z,17.10
2022-09-23T23:56:23.708Z,17.08
2022-09-23T23:58:55.189Z,17.11
